Terminal Aerodrome Forecast
Issued by NWS

Home | Current Version | Previous Version | Text Only | Print | Product List | Glossary On
Versions: 1 2 3 4 5 6 7 8 9 10 11 12 13 14 15 16 17
000
FTUS42 KFFC 211200 AAA
TAFRYY
TAF AMD
KRYY 211238Z 2113/2212 29005KT P6SM SKC
     FM211700 32009G15KT P6SM FEW030
     FM220000 33006KT P6SM SKC=

USA.gov is the U.S. government's official web portal to all federal, state and local government web resources and services.